createdAt,value
2018-07-27T00:00:23.104Z,303.23
2018-07-27T00:02:50.325Z,320.03
2018-07-27T00:05:17.542Z,295.50
2018-07-27T00:07:44.756Z,314.17
2018-07-27T00:10:15.472Z,302.07
2018-07-27T00:12:42.678Z,316.77
2018-07-27T00:15:09.923Z,313.03
2018-07-27T00:17:37.148Z,301.63
2018-07-27T00:20:04.591Z,301.00
2018-07-27T00:22:31.823Z,304.40
2018-07-27T00:24:59.013Z,304.60
2018-07-27T00:27:26.285Z,289.53
2018-07-27T00:29:53.451Z,315.87
2018-07-27T00:32:20.662Z,283.50
2018-07-27T00:34:47.868Z,290.47
2018-07-27T00:37:15.057Z,320.10
2018-07-27T00:39:42.252Z,296.67
2018-07-27T00:42:09.461Z,278.20
2018-07-27T00:44:36.655Z,279.17
2018-07-27T00:47:03.862Z,270.87
2018-07-27T00:49:31.049Z,276.17
2018-07-27T00:51:58.246Z,275.43
2018-07-27T00:54:25.454Z,277.77
2018-07-27T00:56:52.707Z,272.50
2018-07-27T00:59:19.933Z,271.50
2018-07-27T01:01:47.131Z,304.87
2018-07-27T01:04:14.379Z,292.17
2018-07-27T01:06:41.622Z,289.13
2018-07-27T01:09:09.832Z,274.53
2018-07-27T01:11:37.099Z,279.97
2018-07-27T01:14:04.356Z,281.70
2018-07-27T01:16:31.599Z,305.83
2018-07-27T01:18:58.907Z,281.80
2018-07-27T01:21:26.130Z,286.57
2018-07-27T01:23:53.351Z,297.10
2018-07-27T01:26:20.650Z,297.70
2018-07-27T01:28:47.915Z,300.63
2018-07-27T01:31:15.171Z,309.37
2018-07-27T01:33:42.397Z,285.37
2018-07-27T01:36:09.640Z,288.83
2018-07-27T01:38:36.904Z,282.33
2018-07-27T01:41:04.157Z,273.33
2018-07-27T01:43:31.382Z,289.57
2018-07-27T01:45:58.803Z,307.37
2018-07-27T01:48:26.036Z,299.20
2018-07-27T01:50:53.437Z,267.73
2018-07-27T01:53:20.675Z,294.60
2018-07-27T01:55:47.985Z,304.00
2018-07-27T01:58:15.220Z,294.00
2018-07-27T02:00:42.469Z,292.30
2018-07-27T02:03:09.695Z,279.30
2018-07-27T02:05:36.942Z,267.93
2018-07-27T02:08:04.234Z,282.17
2018-07-27T02:10:31.479Z,276.57
2018-07-27T02:12:58.721Z,271.33
2018-07-27T02:15:25.942Z,294.07
2018-07-27T02:17:53.170Z,288.70
2018-07-27T02:20:20.484Z,276.90
2018-07-27T02:22:47.676Z,274.33
2018-07-27T02:25:14.856Z,263.20
2018-07-27T02:27:42.049Z,244.10
2018-07-27T02:30:09.232Z,269.93
2018-07-27T02:32:36.428Z,268.03
2018-07-27T02:35:04.238Z,262.30
2018-07-27T02:37:31.413Z,280.37
2018-07-27T02:39:58.610Z,273.23
2018-07-27T02:42:25.816Z,254.87
2018-07-27T02:44:52.995Z,254.40
2018-07-27T02:47:20.173Z,251.67
2018-07-27T02:49:47.347Z,272.13
2018-07-27T02:52:14.599Z,259.20
2018-07-27T02:54:41.799Z,262.93
2018-07-27T02:57:09.001Z,255.50
2018-07-27T02:59:36.195Z,268.37
2018-07-27T03:02:03.378Z,269.07
2018-07-27T03:04:30.583Z,250.37
2018-07-27T03:06:57.783Z,251.83
2018-07-27T03:09:25.256Z,253.03
2018-07-27T03:11:52.453Z,264.03
2018-07-27T03:14:19.630Z,254.10
2018-07-27T03:16:46.827Z,251.90
2018-07-27T03:19:14.019Z,265.40
2018-07-27T03:21:41.351Z,260.93
2018-07-27T03:24:08.548Z,267.70
2018-07-27T03:26:35.726Z,262.83
2018-07-27T03:29:02.995Z,260.53
2018-07-27T03:31:30.183Z,257.43
2018-07-27T03:33:57.370Z,281.27
2018-07-27T03:36:24.575Z,267.07
2018-07-27T03:38:51.750Z,250.27
2018-07-27T03:41:18.939Z,275.33
2018-07-27T03:43:46.172Z,292.37
2018-07-27T03:46:13.329Z,266.33
2018-07-27T03:48:40.511Z,259.40
2018-07-27T03:51:07.699Z,269.13
2018-07-27T03:53:34.928Z,266.23
2018-07-27T03:56:02.126Z,261.43
2018-07-27T03:58:29.330Z,261.50
2018-07-27T04:00:56.511Z,271.53
2018-07-27T04:03:23.745Z,259.00
2018-07-27T04:05:50.904Z,270.10
2018-07-27T04:08:18.072Z,263.87
2018-07-27T04:10:45.244Z,265.17
2018-07-27T04:13:12.397Z,291.30
2018-07-27T04:15:39.562Z,254.40
2018-07-27T04:18:06.727Z,267.77
2018-07-27T04:20:33.890Z,262.47
2018-07-27T04:23:01.069Z,268.67
2018-07-27T04:25:28.256Z,284.53
2018-07-27T04:27:55.409Z,257.30
2018-07-27T04:30:22.566Z,283.63
2018-07-27T04:32:50.429Z,288.17
2018-07-27T04:35:17.621Z,257.83
2018-07-27T04:37:44.961Z,272.77
2018-07-27T04:40:12.115Z,263.13
2018-07-27T04:42:39.483Z,264.10
2018-07-27T04:45:06.671Z,275.70
2018-07-27T04:47:33.850Z,267.33
2018-07-27T04:50:01.200Z,268.70
2018-07-27T04:52:29.046Z,262.17
2018-07-27T04:54:56.215Z,289.00
2018-07-27T04:57:23.363Z,282.97
2018-07-27T04:59:50.514Z,281.23
2018-07-27T05:02:17.811Z,296.50
2018-07-27T05:04:45.018Z,281.83
2018-07-27T05:07:12.170Z,296.57
2018-07-27T05:09:39.391Z,279.40
2018-07-27T05:12:06.619Z,280.63
2018-07-27T05:14:33.827Z,300.50
2018-07-27T05:17:01.039Z,288.17
2018-07-27T05:19:28.526Z,300.07
2018-07-27T05:21:55.720Z,320.00
2018-07-27T05:24:22.899Z,317.53
2018-07-27T05:26:50.154Z,334.13
2018-07-27T05:29:17.350Z,334.37
2018-07-27T05:31:44.558Z,309.23
2018-07-27T05:34:11.744Z,346.77
2018-07-27T05:36:39.063Z,346.07
2018-07-27T05:39:08.268Z,333.17
2018-07-27T05:41:35.499Z,345.73
2018-07-27T05:44:02.743Z,344.47
2018-07-27T05:46:29.955Z,307.27
2018-07-27T05:48:57.132Z,321.57
2018-07-27T05:51:24.371Z,308.27
2018-07-27T05:53:51.550Z,306.43
2018-07-27T05:56:18.742Z,308.83
2018-07-27T05:58:45.926Z,307.23
2018-07-27T06:01:13.149Z,317.40
2018-07-27T06:03:40.338Z,318.13
2018-07-27T06:06:08.014Z,296.67
2018-07-27T06:08:35.192Z,311.33
2018-07-27T06:11:02.408Z,309.47
2018-07-27T06:13:29.611Z,291.40
2018-07-27T06:15:56.823Z,308.07
2018-07-27T06:18:24.037Z,296.97
2018-07-27T06:20:51.220Z,302.00
2018-07-27T06:23:18.432Z,298.23
2018-07-27T06:25:45.608Z,330.23
2018-07-27T06:28:12.844Z,313.27
2018-07-27T06:30:40.001Z,335.23
2018-07-27T06:33:07.197Z,312.37
2018-07-27T06:35:34.396Z,335.73
2018-07-27T06:38:01.581Z,331.23
2018-07-27T06:40:28.772Z,324.37
2018-07-27T06:42:55.942Z,322.10
2018-07-27T06:45:23.119Z,321.30
2018-07-27T06:47:50.315Z,318.93
2018-07-27T06:50:17.511Z,328.60
2018-07-27T06:52:44.802Z,349.47
2018-07-27T06:55:11.984Z,342.10
2018-07-27T06:57:39.602Z,343.30
2018-07-27T07:00:06.799Z,360.60
2018-07-27T07:02:33.991Z,354.23
2018-07-27T07:05:01.247Z,398.53
2018-07-27T07:07:28.431Z,417.70
2018-07-27T07:09:55.622Z,500.50
2018-07-27T07:12:23.106Z,515.60
2018-07-27T07:14:50.270Z,585.20
2018-07-27T07:17:17.435Z,578.13
2018-07-27T07:19:44.607Z,597.37
2018-07-27T07:22:11.799Z,627.00
2018-07-27T07:24:38.971Z,631.03
2018-07-27T07:27:06.179Z,659.00
2018-07-27T07:29:33.395Z,647.77
2018-07-27T07:32:00.575Z,691.27
2018-07-27T07:34:27.746Z,684.43
2018-07-27T07:36:54.934Z,690.57
2018-07-27T07:39:22.120Z,711.23
2018-07-27T07:41:49.313Z,712.87
2018-07-27T07:44:16.491Z,712.80
2018-07-27T07:46:43.684Z,743.57
2018-07-27T07:49:10.862Z,755.77
2018-07-27T07:51:38.090Z,759.20
2018-07-27T07:54:05.440Z,767.30
2018-07-27T07:56:32.875Z,788.57
2018-07-27T07:59:00.356Z,787.43
2018-07-27T08:01:27.543Z,801.03
2018-07-27T08:03:54.987Z,808.63
2018-07-27T08:06:22.173Z,806.83
2018-07-27T08:08:49.467Z,786.17
2018-07-27T08:11:16.688Z,801.70
2018-07-27T08:13:43.853Z,798.20
2018-07-27T08:16:11.055Z,813.33
2018-07-27T08:18:38.248Z,795.47
2018-07-27T08:21:05.501Z,788.97
2018-07-27T08:23:32.697Z,802.57
2018-07-27T08:27:05.508Z,813.47
2018-07-27T08:29:36.831Z,826.50
2018-07-27T08:32:04.339Z,815.63
2018-07-27T08:34:31.535Z,811.97
2018-07-27T08:36:58.726Z,816.93
2018-07-27T08:39:27.159Z,833.93
2018-07-27T08:41:54.382Z,810.23
2018-07-27T08:44:23.824Z,786.00
2018-07-27T08:46:51.286Z,837.63
2018-07-27T08:49:18.554Z,830.33
2018-07-27T08:51:45.751Z,814.13
2018-07-27T08:54:12.953Z,851.53
2018-07-27T08:56:40.182Z,828.60
2018-07-27T08:59:07.514Z,822.20
2018-07-27T09:01:34.748Z,834.40
2018-07-27T09:04:01.972Z,822.97
2018-07-27T09:06:29.151Z,836.07
2018-07-27T09:08:56.474Z,821.40
2018-07-27T09:11:23.938Z,792.17
2018-07-27T09:13:51.728Z,813.53
2018-07-27T09:16:19.195Z,806.63
2018-07-27T09:18:46.656Z,839.63
2018-07-27T09:21:13.850Z,800.87
2018-07-27T09:23:41.053Z,804.10
2018-07-27T09:26:08.267Z,820.93
2018-07-27T09:28:35.503Z,844.47
2018-07-27T09:31:02.716Z,842.50
2018-07-27T09:33:29.890Z,813.83
2018-07-27T09:35:57.128Z,798.67
2018-07-27T09:38:24.328Z,818.03
2018-07-27T09:40:51.515Z,805.60
2018-07-27T09:43:19.207Z,825.93
2018-07-27T09:45:46.577Z,842.80
2018-07-27T09:48:13.819Z,814.43
2018-07-27T09:50:41.713Z,831.77
2018-07-27T09:53:08.905Z,797.80
2018-07-27T09:55:36.095Z,790.03
2018-07-27T09:58:03.339Z,799.43
2018-07-27T10:00:36.388Z,821.37
2018-07-27T10:03:03.582Z,843.17
2018-07-27T10:05:31.026Z,816.90
2018-07-27T10:07:58.487Z,782.27
2018-07-27T10:10:25.680Z,811.40
2018-07-27T10:12:52.920Z,785.57
2018-07-27T10:15:20.071Z,832.20
2018-07-27T10:17:47.493Z,783.20
2018-07-27T10:20:14.689Z,812.53
2018-07-27T10:22:41.872Z,799.23
2018-07-27T10:25:09.078Z,837.40
2018-07-27T10:27:36.260Z,837.50
2018-07-27T10:30:03.987Z,809.70
2018-07-27T10:32:31.219Z,804.33
2018-07-27T10:34:58.412Z,834.83
2018-07-27T10:37:25.703Z,844.73
2018-07-27T10:39:52.935Z,807.13
2018-07-27T10:42:20.118Z,818.23
2018-07-27T10:44:47.351Z,826.63
2018-07-27T10:47:14.540Z,833.80
2018-07-27T10:49:41.744Z,821.93
2018-07-27T10:52:08.952Z,846.37
2018-07-27T10:54:36.161Z,809.07
2018-07-27T10:57:03.482Z,798.10
2018-07-27T10:59:30.683Z,802.23
2018-07-27T11:01:57.873Z,816.43
2018-07-27T11:04:25.062Z,833.13
2018-07-27T11:06:52.302Z,842.90
2018-07-27T11:09:19.467Z,836.53
2018-07-27T11:11:46.670Z,832.70
2018-07-27T11:14:13.884Z,803.80
2018-07-27T11:16:41.055Z,801.83
2018-07-27T11:19:08.350Z,808.30
2018-07-27T11:21:35.547Z,813.53
2018-07-27T11:24:02.747Z,812.60
2018-07-27T11:26:29.930Z,796.80
2018-07-27T11:28:57.141Z,772.60
2018-07-27T11:31:24.590Z,752.47
2018-07-27T11:33:51.784Z,719.73
2018-07-27T11:36:18.995Z,735.97
2018-07-27T11:38:46.201Z,712.20
2018-07-27T11:41:13.397Z,722.77
2018-07-27T11:43:40.583Z,690.97
2018-07-27T11:46:07.783Z,714.87
2018-07-27T11:48:34.954Z,650.83
2018-07-27T11:51:02.131Z,673.60
2018-07-27T11:53:29.299Z,663.37
2018-07-27T11:55:56.515Z,664.33
2018-07-27T11:58:23.860Z,619.30
2018-07-27T12:00:51.248Z,671.50
2018-07-27T12:03:18.431Z,638.53
2018-07-27T12:05:45.613Z,674.27
2018-07-27T12:08:12.800Z,646.13
2018-07-27T12:10:39.975Z,626.23
2018-07-27T12:13:07.179Z,657.97
2018-07-27T12:15:34.372Z,650.67
2018-07-27T12:18:01.563Z,626.37
2018-07-27T12:20:28.916Z,672.00
2018-07-27T12:22:56.068Z,675.03
2018-07-27T12:25:23.238Z,673.20
2018-07-27T12:27:50.443Z,665.77
2018-07-27T12:30:17.628Z,652.47
2018-07-27T12:32:44.950Z,670.00
2018-07-27T12:35:12.127Z,613.77
2018-07-27T12:37:39.302Z,623.83
2018-07-27T12:40:06.498Z,607.77
2018-07-27T12:42:33.735Z,631.17
2018-07-27T12:45:00.927Z,635.80
2018-07-27T12:47:28.075Z,635.17
2018-07-27T12:49:55.280Z,640.33
2018-07-27T12:52:22.472Z,607.73
2018-07-27T12:54:49.676Z,657.87
2018-07-27T12:57:16.987Z,634.83
2018-07-27T12:59:44.187Z,634.97
2018-07-27T13:02:11.511Z,637.93
2018-07-27T13:04:38.695Z,660.27
2018-07-27T13:07:05.915Z,632.40
2018-07-27T13:09:33.111Z,664.50
2018-07-27T13:12:00.327Z,660.80
2018-07-27T13:14:27.584Z,664.50
2018-07-27T13:16:54.810Z,673.03
2018-07-27T13:19:21.999Z,660.03
2018-07-27T13:21:49.193Z,694.10
2018-07-27T13:24:16.362Z,701.60
2018-07-27T13:26:43.581Z,694.63
2018-07-27T13:29:10.739Z,716.00
2018-07-27T13:31:42.269Z,730.37
2018-07-27T13:34:55.875Z,712.53
2018-07-27T13:37:24.423Z,741.50
2018-07-27T13:39:52.911Z,740.23
2018-07-27T13:42:21.543Z,721.90
2018-07-27T13:44:48.723Z,753.73
2018-07-27T13:47:16.600Z,764.30
2018-07-27T13:49:43.849Z,736.43
2018-07-27T13:52:11.055Z,778.83
2018-07-27T13:54:38.267Z,804.77
2018-07-27T13:57:05.485Z,803.57
2018-07-27T13:59:32.776Z,774.57
2018-07-27T14:02:00.049Z,788.70
2018-07-27T14:04:27.227Z,781.23
2018-07-27T14:06:56.409Z,779.97
2018-07-27T14:09:23.655Z,767.43
2018-07-27T14:11:50.875Z,775.97
2018-07-27T14:14:18.080Z,764.07
2018-07-27T14:16:45.252Z,776.13
2018-07-27T14:19:13.249Z,748.87
2018-07-27T14:21:40.645Z,750.07
2018-07-27T14:24:07.795Z,772.40
2018-07-27T14:26:34.995Z,768.87
2018-07-27T14:29:02.219Z,740.10
2018-07-27T14:31:29.412Z,743.30
2018-07-27T14:33:56.594Z,730.80
2018-07-27T14:36:23.888Z,760.40
2018-07-27T14:38:51.122Z,755.23
2018-07-27T14:41:19.144Z,720.40
2018-07-27T14:43:46.332Z,721.97
2018-07-27T14:46:13.515Z,710.47
2018-07-27T14:48:40.724Z,723.60
2018-07-27T14:51:07.935Z,719.37
2018-07-27T14:53:35.147Z,714.93
2018-07-27T14:56:02.352Z,725.27
2018-07-27T14:58:29.534Z,752.33
2018-07-27T15:00:56.741Z,778.03
2018-07-27T15:03:23.999Z,775.97
2018-07-27T15:05:51.183Z,768.80
2018-07-27T15:08:18.539Z,761.53
2018-07-27T15:10:45.718Z,764.03
2018-07-27T15:13:13.472Z,758.53
2018-07-27T15:15:40.666Z,767.53
2018-07-27T15:18:07.835Z,766.87
2018-07-27T15:20:35.195Z,811.27
2018-07-27T15:23:02.434Z,779.83
2018-07-27T15:25:29.627Z,787.70
2018-07-27T15:27:56.820Z,764.40
2018-07-27T15:30:24.034Z,773.80
2018-07-27T15:32:51.342Z,766.43
2018-07-27T15:35:18.519Z,776.10
2018-07-27T15:37:45.704Z,803.53
2018-07-27T15:40:12.890Z,808.10
2018-07-27T15:42:40.091Z,780.63
2018-07-27T15:45:07.268Z,808.57
2018-07-27T15:47:34.492Z,780.60
2018-07-27T15:50:01.679Z,761.20
2018-07-27T15:52:28.987Z,771.37
2018-07-27T15:54:56.169Z,795.70
2018-07-27T15:57:23.338Z,770.70
2018-07-27T15:59:50.543Z,773.27
2018-07-27T16:02:17.738Z,766.17
2018-07-27T16:04:45.090Z,763.50
2018-07-27T16:07:12.275Z,749.30
2018-07-27T16:09:39.483Z,761.80
2018-07-27T16:12:06.774Z,740.90
2018-07-27T16:14:33.950Z,771.73
2018-07-27T16:17:01.139Z,774.77
2018-07-27T16:19:28.558Z,780.87
2018-07-27T16:21:56.657Z,771.47
2018-07-27T16:24:23.798Z,759.47
2018-07-27T16:26:50.996Z,769.43
2018-07-27T16:29:18.319Z,770.20
2018-07-27T16:31:45.630Z,786.10
2018-07-27T16:34:12.819Z,771.43
2018-07-27T16:36:40.160Z,750.80
2018-07-27T16:39:08.449Z,726.57
2018-07-27T16:41:35.821Z,759.70
2018-07-27T16:44:03.284Z,703.37
2018-07-27T16:46:30.702Z,734.77
2018-07-27T16:48:58.102Z,742.33
2018-07-27T16:51:25.283Z,707.93
2018-07-27T16:53:52.461Z,737.73
2018-07-27T16:56:19.663Z,736.80
2018-07-27T16:58:46.887Z,765.83
2018-07-27T17:01:14.079Z,756.97
2018-07-27T17:03:41.256Z,757.33
2018-07-27T17:06:08.451Z,739.53
2018-07-27T17:08:35.633Z,758.17
2018-07-27T17:11:02.930Z,762.57
2018-07-27T17:13:30.117Z,730.57
2018-07-27T17:15:57.367Z,730.83
2018-07-27T17:18:24.599Z,732.63
2018-07-27T17:20:51.996Z,711.63
2018-07-27T17:23:19.211Z,743.40
2018-07-27T17:25:47.475Z,752.63
2018-07-27T17:28:14.588Z,738.37
2018-07-27T17:30:41.784Z,739.53
2018-07-27T17:33:08.963Z,755.47
2018-07-27T17:35:36.155Z,750.80
2018-07-27T17:38:03.386Z,737.77
2018-07-27T17:40:30.588Z,746.63
2018-07-27T17:42:57.816Z,740.37
2018-07-27T17:45:25.022Z,716.23
2018-07-27T17:47:52.196Z,718.40
2018-07-27T17:50:19.379Z,719.90
2018-07-27T17:52:46.576Z,677.50
2018-07-27T17:55:13.779Z,682.57
2018-07-27T17:57:40.981Z,653.40
2018-07-27T18:00:08.203Z,648.17
2018-07-27T18:02:35.783Z,629.17
2018-07-27T18:05:03.206Z,637.90
2018-07-27T18:07:31.448Z,586.93
2018-07-27T18:09:58.492Z,579.93
2018-07-27T18:12:25.858Z,554.30
2018-07-27T18:14:53.015Z,547.40
2018-07-27T18:17:20.155Z,528.97
2018-07-27T18:19:47.300Z,522.17
2018-07-27T18:22:14.507Z,514.63
2018-07-27T18:24:41.788Z,518.97
2018-07-27T18:27:09.031Z,499.13
2018-07-27T18:29:36.403Z,474.73
2018-07-27T18:32:03.625Z,480.40
2018-07-27T18:34:30.786Z,473.13
2018-07-27T18:36:57.947Z,447.13
2018-07-27T18:39:25.131Z,461.53
2018-07-27T18:41:52.304Z,477.57
2018-07-27T18:44:19.495Z,427.60
2018-07-27T18:46:46.671Z,457.80
2018-07-27T18:49:13.827Z,461.10
2018-07-27T18:51:41.042Z,415.27
2018-07-27T18:54:08.353Z,417.60
2018-07-27T18:56:35.521Z,438.60
2018-07-27T18:59:02.719Z,431.57
2018-07-27T19:01:29.999Z,415.13
2018-07-27T19:03:58.123Z,405.80
2018-07-27T19:06:25.387Z,399.30
2018-07-27T19:08:52.649Z,425.17
2018-07-27T19:11:19.816Z,388.53
2018-07-27T19:13:46.977Z,398.13
2018-07-27T19:16:14.206Z,414.13
2018-07-27T19:18:41.386Z,423.00
2018-07-27T19:21:08.653Z,377.00
2018-07-27T19:23:36.058Z,415.93
2018-07-27T19:26:03.288Z,394.90
2018-07-27T19:28:30.586Z,396.20
2018-07-27T19:30:57.786Z,395.93
2018-07-27T19:33:24.976Z,372.77
2018-07-27T19:35:52.130Z,367.80
2018-07-27T19:38:19.287Z,375.67
2018-07-27T19:40:46.496Z,378.90
2018-07-27T19:43:13.667Z,382.87
2018-07-27T19:45:40.831Z,366.40
2018-07-27T19:48:08.545Z,365.07
2018-07-27T19:50:35.767Z,367.87
2018-07-27T19:53:02.995Z,372.93
2018-07-27T19:55:30.191Z,378.73
2018-07-27T19:57:57.352Z,349.63
2018-07-27T20:00:24.578Z,345.80
2018-07-27T20:02:51.857Z,354.13
2018-07-27T20:05:19.115Z,362.40
2018-07-27T20:07:46.307Z,357.33
2018-07-27T20:10:13.527Z,356.87
2018-07-27T20:12:40.722Z,352.67
2018-07-27T20:15:07.967Z,362.17
2018-07-27T20:17:35.611Z,343.97
2018-07-27T20:20:02.863Z,339.30
2018-07-27T20:22:30.035Z,338.97
2018-07-27T20:24:57.254Z,360.03
2018-07-27T20:27:24.451Z,366.90
2018-07-27T20:29:51.654Z,361.33
2018-07-27T20:32:18.833Z,360.80
2018-07-27T20:34:46.101Z,347.40
2018-07-27T20:37:13.289Z,373.90
2018-07-27T20:39:40.467Z,350.30
2018-07-27T20:42:07.655Z,384.17
2018-07-27T20:44:34.844Z,352.27
2018-07-27T20:47:02.099Z,345.47
2018-07-27T20:49:29.287Z,359.07
2018-07-27T20:51:59.678Z,387.77
2018-07-27T20:54:26.871Z,345.90
2018-07-27T20:56:54.075Z,343.03
2018-07-27T20:59:21.283Z,373.30
2018-07-27T21:01:48.646Z,355.53
2018-07-27T21:04:15.920Z,355.27
2018-07-27T21:06:43.128Z,374.73
2018-07-27T21:09:11.147Z,365.47
2018-07-27T21:11:38.428Z,372.73
2018-07-27T21:14:06.060Z,338.37
2018-07-27T21:16:33.244Z,327.33
2018-07-27T21:19:00.435Z,342.93
2018-07-27T21:21:27.763Z,337.77
2018-07-27T21:23:54.996Z,345.83
2018-07-27T21:26:22.186Z,352.80
2018-07-27T21:28:49.407Z,344.80
2018-07-27T21:31:16.574Z,339.37
2018-07-27T21:33:43.788Z,331.47
2018-07-27T21:36:10.959Z,332.50
2018-07-27T21:38:38.150Z,326.80
2018-07-27T21:41:05.347Z,333.50
2018-07-27T21:43:32.528Z,356.53
2018-07-27T21:45:59.756Z,344.20
2018-07-27T21:48:27.111Z,359.10
2018-07-27T21:50:54.292Z,357.07
2018-07-27T21:53:21.475Z,352.20
2018-07-27T21:55:48.646Z,322.57
2018-07-27T21:58:15.846Z,320.33
2018-07-27T22:00:43.064Z,351.00
2018-07-27T22:03:10.254Z,322.57
2018-07-27T22:05:37.420Z,329.17
2018-07-27T22:08:04.755Z,345.53
2018-07-27T22:10:31.995Z,359.37
2018-07-27T22:12:59.234Z,330.00
2018-07-27T22:15:26.699Z,320.77
2018-07-27T22:17:53.903Z,316.20
2018-07-27T22:20:22.635Z,332.93
2018-07-27T22:22:49.819Z,320.00
2018-07-27T22:25:17.120Z,353.53
2018-07-27T22:27:45.346Z,317.90
2018-07-27T22:30:12.761Z,328.37
2018-07-27T22:32:39.923Z,318.73
2018-07-27T22:35:07.413Z,306.63
2018-07-27T22:37:34.829Z,320.07
2018-07-27T22:40:02.082Z,316.80
2018-07-27T22:42:29.303Z,315.33
2018-07-27T22:44:56.482Z,327.40
2018-07-27T22:47:23.808Z,333.70
2018-07-27T22:49:51.151Z,342.07
2018-07-27T22:52:18.714Z,311.73
2018-07-27T22:54:45.891Z,314.97
2018-07-27T22:57:13.087Z,339.07
2018-07-27T22:59:40.290Z,320.20
2018-07-27T23:02:07.489Z,326.97
2018-07-27T23:04:34.677Z,310.40
2018-07-27T23:07:01.851Z,344.90
2018-07-27T23:09:29.023Z,333.40
2018-07-27T23:11:56.212Z,308.53
2018-07-27T23:14:23.421Z,312.77
2018-07-27T23:16:50.606Z,306.97
2018-07-27T23:19:17.806Z,334.93
2018-07-27T23:21:44.990Z,325.43
2018-07-27T23:24:12.345Z,316.40
2018-07-27T23:26:39.540Z,305.10
2018-07-27T23:29:06.740Z,329.40
2018-07-27T23:31:33.939Z,326.70
2018-07-27T23:34:01.130Z,316.57
2018-07-27T23:36:28.322Z,301.30
2018-07-27T23:38:55.502Z,320.30
2018-07-27T23:41:22.695Z,310.10
2018-07-27T23:43:49.867Z,324.63
2018-07-27T23:46:17.042Z,317.23
2018-07-27T23:48:44.234Z,320.63
2018-07-27T23:51:11.430Z,325.43
2018-07-27T23:53:38.618Z,313.90
2018-07-27T23:56:05.842Z,303.67
2018-07-27T23:58:33.031Z,304.97
